Flight Track Log - Related Links

Times and Time Zones

All times are in EDT time to prevent confusion due to time zone crossing. See the DAL1706 flight status page for this flight to view local times or setup timezone preferences in your user account.

Time Position Orientation Groundspeed Altitude Reporting Facility
EDT Latitude Longitude Course Direction KTS MPH feet Rate Location/Type
Sun 08:53:46 AM 42.2153 -83.4930 North  Level FlightAware Approximate
Sun 08:56:37 AM 42.3906 -83.4678 274° West 284 327 10,700  Level Cleveland Center
Sun 08:57:37 AM 42.3964 -83.5747 272° West 314 361 12,800 1,900 Climbing Cleveland Center
Sun 08:58:37 AM 42.3992 -83.6958 274° West 314 361 14,500 1,650 Climbing Cleveland Center
Sun 08:59:37 AM 42.4061 -83.8228 274° West 334 384 16,100 1,750 Climbing Cleveland Center
Sun 09:00:37 AM 42.4142 -83.9808 273° West 361 415 18,000 2,050 Climbing Cleveland Center
Sun 09:01:37 AM 42.4200 -84.1303 273° West 397 457 20,200 2,150 Climbing Cleveland Center
Sun 09:02:37 AM 42.4258 -84.2797 272° West 406 467 22,300 1,900 Climbing Cleveland Center
Sun 09:03:37 AM 42.4292 -84.4344 273° West 406 467 24,000 1,700 Climbing Cleveland Center
Sun 09:04:37 AM 42.4342 -84.5897 278° West 406 467 25,700 1,586 Climbing Cleveland Center
Sun 09:05:04 AM 42.4397 -84.6422 272° West 411 473 26,300 1,655 Climbing Chicago Center
Sun 09:06:04 AM 42.4439 -84.7994 272° West 396 456 28,100 1,700 Climbing Chicago Center
Sun 09:07:04 AM 42.4478 -84.9511 272° West 401 461 29,700 1,700 Climbing Chicago Center
Sun 09:08:04 AM 42.4514 -85.1031 271° West 406 467 31,500 1,650 Climbing Chicago Center
Sun 09:09:04 AM 42.4525 -85.2492 272° West 401 461 33,000 1,450 Climbing Chicago Center
Sun 09:10:04 AM 42.4553 -85.3928 272° West 401 461 34,400 1,350 Climbing Chicago Center
Sun 09:11:04 AM 42.4581 -85.5361 270° West 391 450 35,700 800 Climbing Chicago Center
Sun 09:12:04 AM 42.4586 -85.6769 271° West 385 443 36,000 150 Climbing Chicago Center
Sun 09:13:04 AM 42.4614 -85.8314 271° West 385 443 36,000  Level Chicago Center
Sun 09:14:04 AM 42.4633 -85.9722 270° West 385 443 36,000  Level Chicago Center
Sun 09:15:04 AM 42.4633 -86.1131 262° West 385 443 36,000  Level Chicago Center
Sun 09:16:04 AM 42.4483 -86.2544 259° West 385 443 36,000  Level Chicago Center
Sun 09:17:04 AM 42.4292 -86.3906 262° West 385 443 36,000  Level Chicago Center
Sun 09:18:04 AM 42.4139 -86.5289 259° West 385 443 36,000  Level Chicago Center
Sun 09:19:04 AM 42.3942 -86.6675 261° West 385 443 36,000  Level Chicago Center
Sun 09:20:04 AM 42.3786 -86.8033 261° West 374 430 36,000  Level Chicago Center
Sun 09:21:04 AM 42.3628 -86.9389 259° West 374 430 36,000  Level Chicago Center
Sun 09:22:04 AM 42.3425 -87.0772 261° West 374 430 36,000  Level Chicago Center
Sun 09:23:04 AM 42.3264 -87.2125 260° West 374 430 36,000  Level Chicago Center
Sun 09:24:04 AM 42.3081 -87.3508 260° West 374 430 36,000  Level Chicago Center
Sun 09:25:04 AM 42.2894 -87.4917 258° West 374 430 36,000  Level Chicago Center
Sun 09:26:04 AM 42.2689 -87.6269 259° West 374 430 36,000  Level Chicago Center
Sun 09:27:04 AM 42.2478 -87.7678 260° West 374 430 36,000  Level Chicago Center
Sun 09:28:04 AM 42.2289 -87.9086 257° West 374 430 36,000  Level Chicago Center
Sun 09:29:04 AM 42.2056 -88.0492 257° West 379 436 36,000  Level Chicago Center
Sun 09:30:04 AM 42.1819 -88.1869 257° West 379 436 36,000  Level Chicago Center
Sun 09:31:04 AM 42.1564 -88.3303 257° West 379 436 36,000  Level Chicago Center
Sun 09:32:04 AM 42.1325 -88.4681 256° West 379 436 36,000  Level Chicago Center
Sun 09:33:04 AM 42.1064 -88.6083 256° West 379 436 36,000  Level Chicago Center
Sun 09:34:04 AM 42.0800 -88.7483 257° West 385 443 36,000  Level Chicago Center
Sun 09:35:04 AM 42.0556 -88.8914 256° West 385 443 36,000  Level Chicago Center
Sun 09:36:04 AM 42.0311 -89.0200 256° West 395 455 36,000  Level Chicago Center
Sun 09:37:04 AM 42.0064 -89.1572 256° West 395 455 36,000  Level Chicago Center
Sun 09:38:04 AM 41.9794 -89.2997 255° West 395 455 36,000  Level Chicago Center
Sun 09:39:04 AM 41.9503 -89.4475 258° West 395 455 36,000  Level Chicago Center
Sun 09:40:04 AM 41.9272 -89.5872 254° West 395 455 36,000  Level Chicago Center
Sun 09:41:04 AM 41.8956 -89.7319 256° West 395 455 36,000  Level Chicago Center
Sun 09:42:04 AM 41.8678 -89.8769 257° West 395 455 36,000  Level Chicago Center
Sun 09:43:04 AM 41.8419 -90.0272 254° West 388 447 36,000  Level Chicago Center
Sun 09:44:04 AM 41.8119 -90.1717 257° West 394 453 36,000  Level Chicago Center
Sun 09:45:04 AM 41.7878 -90.3078 255° West 404 465 36,000  Level Chicago Center
Sun 09:46:04 AM 41.7594 -90.4494 255° West 410 472 36,000  Level Chicago Center
Sun 09:47:04 AM 41.7308 -90.5936 254° West 410 472 36,000  Level Chicago Center
Sun 09:48:04 AM 41.6978 -90.7486 255° West 395 455 36,000  Level Chicago Center
Sun 09:49:04 AM 41.6689 -90.8925 255° West 395 455 36,000  Level Chicago Center
Sun 09:50:04 AM 41.6397 -91.0392 253° West 400 460 36,000  Level Chicago Center
Sun 09:51:04 AM 41.6083 -91.1800 254° West 395 455 36,000  Level Chicago Center
Sun 09:52:04 AM 41.5789 -91.3208 255° West 395 455 36,000  Level Chicago Center
Sun 09:53:04 AM 41.5492 -91.4697 253° West 400 460 36,000  Level Chicago Center
Sun 09:54:04 AM 41.5175 -91.6100 251° West 400 460 36,000  Level Chicago Center
Sun 09:55:04 AM 41.4811 -91.7503 251° West 400 460 36,000  Level Chicago Center
Sun 09:56:04 AM 41.4447 -91.8903 250° West 400 460 36,000  Level Chicago Center
Sun 09:57:04 AM 41.4061 -92.0325 251° West 400 460 36,000  Level Chicago Center
Sun 09:58:04 AM 41.3717 -92.1639 249° West 407 468 36,000  Level Chicago Center
Sun 09:59:04 AM 41.3328 -92.3006 252° West 407 468 36,000  Level Chicago Center
Sun 10:00:04 AM 41.2978 -92.4456 250° West 402 463 36,000  Level Chicago Center
Sun 10:01:04 AM 41.2583 -92.5875 251° West 407 468 36,000  Level Chicago Center
Sun 10:02:04 AM 41.2208 -92.7319 250° West 407 468 36,000  Level Chicago Center
Sun 10:03:04 AM 41.1786 -92.8869 250° West 407 468 36,000  Level Chicago Center
Sun 10:04:04 AM 41.1386 -93.0336 249° West 407 468 36,000  Level Chicago Center
Sun 10:05:36 AM 41.0814 -93.2353 251° West 417 480 36,000  Level Minneapolis Center
Sun 10:06:36 AM 41.0442 -93.3783 254° West 417 480 36,000  Level Minneapolis Center
Sun 10:07:36 AM 41.0128 -93.5239 253° West 417 480 36,000  Level Minneapolis Center
Sun 10:08:36 AM 40.9794 -93.6719 253° West 417 480 36,000  Level Minneapolis Center
Sun 10:09:37 AM 40.9436 -93.8308 253° West 417 480 36,000  Level Minneapolis Center
Sun 10:10:36 AM 40.9097 -93.9761 254° West 417 480 36,000  Level Minneapolis Center
Sun 10:11:36 AM 40.8797 -94.1183 252° West 417 480 36,000  Level Minneapolis Center
Sun 10:12:36 AM 40.8433 -94.2658 252° West 417 480 36,000  Level Minneapolis Center
Sun 10:13:36 AM 40.8067 -94.4103 253° West 423 487 36,000  Level Minneapolis Center
Sun 10:14:36 AM 40.7719 -94.5603 253° West 423 487 36,000  Level Minneapolis Center
Sun 10:15:36 AM 40.7436 -94.6856 252° West 409 471 36,000  Level Minneapolis Center
Sun 10:16:36 AM 40.7064 -94.8322 253° West 419 482 36,000  Level Minneapolis Center
Sun 10:17:36 AM 40.6711 -94.9817 253° West 424 488 36,000  Level Minneapolis Center
Sun 10:18:36 AM 40.6358 -95.1311 251° West 424 488 36,000  Level Minneapolis Center
Sun 10:19:36 AM 40.5981 -95.2772 252° West 424 488 36,000  Level Minneapolis Center
Sun 10:20:36 AM 40.5622 -95.4236 251° West 424 488 36,000  Level Minneapolis Center
Sun 10:21:36 AM 40.5239 -95.5722 253° West 429 494 36,000  Level Minneapolis Center
Sun 10:22:36 AM 40.4853 -95.7342 251° West 429 494 36,000  Level Minneapolis Center
Sun 10:23:36 AM 40.4469 -95.8797 252° West 424 488 36,000  Level Minneapolis Center
Sun 10:24:36 AM 40.4100 -96.0281 250° West 424 488 36,000  Level Minneapolis Center
Sun 10:25:36 AM 40.3714 -96.1706 253° West 424 488 36,000  Level Minneapolis Center
Sun 10:26:36 AM 40.3361 -96.3186 251° West 419 482 36,000  Level Minneapolis Center
Sun 10:27:36 AM 40.2969 -96.4633 252° West 419 482 36,000  Level Minneapolis Center
Sun 10:28:36 AM 40.2594 -96.6108 251° West 425 489 36,000  Level Minneapolis Center
Sun 10:29:37 AM 40.2219 -96.7556 250° West 425 489 36,000  Level Minneapolis Center
Sun 10:30:36 AM 40.1819 -96.8997 251° West 425 489 36,000  Level Minneapolis Center
Sun 10:31:37 AM 40.1442 -97.0442 252° West 425 489 36,000  Level Minneapolis Center
Sun 10:32:36 AM 40.1078 -97.1908 253° West 420 483 36,000  Level Minneapolis Center
Sun 10:33:36 AM 40.0739 -97.3325 251° West 425 489 36,000  Level Minneapolis Center
Sun 10:34:36 AM 40.0353 -97.4789 252° West 418 481 36,000  Level Minneapolis Center
Sun 10:35:36 AM 39.9983 -97.6253 250° West 424 488 36,000  Level Minneapolis Center
Sun 10:36:37 AM 39.9572 -97.7711 251° West 430 495 36,000  Level Minneapolis Center
Sun 10:37:36 AM 39.9181 -97.9169 250° West 430 495 36,000  Level Minneapolis Center
Sun 10:38:37 AM 39.8764 -98.0653 250° West 436 502 36,000  Level Minneapolis Center
Sun 10:39:36 AM 39.8372 -98.2053 250° West 436 502 36,000  Level Minneapolis Center
Sun 10:40:37 AM 39.7975 -98.3506 250° West 431 496 36,000  Level Minneapolis Center
Sun 10:41:36 AM 39.7575 -98.4931 250° West 431 496 36,000  Level Minneapolis Center
Sun 10:42:32 AM 39.7250 -98.6111 251° West 423 487 36,000  Level Denver Center
Sun 10:43:32 AM 39.6847 -98.7589 250° West 423 487 36,000  Level Denver Center
Sun 10:44:32 AM 39.6442 -98.9011 251° West 423 487 36,000  Level Denver Center
Sun 10:45:32 AM 39.6039 -99.0486 249° West 423 487 36,000  Level Denver Center
Sun 10:46:32 AM 39.5628 -99.1878 250° West 423 487 36,000  Level Denver Center
Sun 10:47:32 AM 39.5186 -99.3489 250° West 423 487 36,000  Level Denver Center
Sun 10:48:32 AM 39.4772 -99.4931 249° West 423 487 36,000  Level Denver Center
Sun 10:49:32 AM 39.4392 -99.6208 249° West 423 487 36,000  Level Denver Center
Sun 10:50:32 AM 39.3975 -99.7647 249° West 428 493 36,000  Level Denver Center
Sun 10:51:32 AM 39.3506 -99.9250 249° West 428 493 36,000  Level Denver Center
Sun 10:52:32 AM 39.3083 -100.0661 249° West 423 487 36,000  Level Denver Center
Sun 10:53:32 AM 39.2681 -100.2014 244° Southwest 423 487 36,000  Level Denver Center
Sun 10:54:32 AM 39.2206 -100.3264 242° Southwest 423 487 36,000  Level Denver Center
Sun 10:55:32 AM 39.1614 -100.4708 241° Southwest 423 487 36,000  Level Denver Center
Sun 10:56:32 AM 39.1056 -100.6017 242° Southwest 425 489 36,000  Level Denver Center
Sun 10:57:32 AM 39.0497 -100.7347 240° Southwest 425 489 36,000  Level Denver Center
Sun 10:58:32 AM 38.9992 -100.8486 242° Southwest 425 489 36,000  Level Denver Center
Sun 10:59:32 AM 38.9392 -100.9922 242° Southwest 418 481 36,000  Level Denver Center
Sun 11:00:32 AM 38.8867 -101.1164 241° Southwest 412 474 36,000  Level Denver Center
Sun 11:01:32 AM 38.8322 -101.2433 242° Southwest 412 474 36,000  Level Denver Center
Sun 11:02:32 AM 38.7853 -101.3586 241° Southwest 406 467 36,000  Level Denver Center
Sun 11:03:32 AM 38.7264 -101.4933 240° Southwest 406 467 36,000  Level Denver Center
Sun 11:04:32 AM 38.6714 -101.6169 241° Southwest 407 468 36,000  Level Denver Center
Sun 11:05:32 AM 38.6258 -101.7239 240° Southwest 402 463 36,000  Level Denver Center
Sun 11:06:32 AM 38.5703 -101.8472 241° Southwest 402 463 36,000  Level Denver Center
Sun 11:07:32 AM 38.5131 -101.9808 241° Southwest 402 463 36,000  Level Denver Center
Sun 11:08:32 AM 38.4575 -102.1092 240° Southwest 412 474 36,000  Level Denver Center
Sun 11:09:32 AM 38.4036 -102.2289 241° Southwest 422 486 36,000  Level Denver Center
Sun 11:10:32 AM 38.3403 -102.3731 239° Southwest 429 494 36,000  Level Denver Center
Sun 11:11:32 AM 38.2819 -102.4981 241° Southwest 429 494 36,000  Level Denver Center
Sun 11:12:32 AM 38.2258 -102.6256 245° Southwest 422 486 36,000  Level Denver Center
Sun 11:13:32 AM 38.1839 -102.7414 240° Southwest 412 474 36,000  Level Denver Center
Sun 11:14:32 AM 38.1214 -102.8767 226° Southwest 401 461 36,000  Level Denver Center
Sun 11:15:32 AM 38.0433 -102.9806 229° Southwest 407 468 36,000  Level Denver Center
Sun 11:16:32 AM 37.9675 -103.0897 227° Southwest 415 478 36,000  Level Denver Center
Sun 11:17:32 AM 37.8972 -103.1850 227° Southwest 410 472 36,000  Level Denver Center
Sun 11:18:32 AM 37.8108 -103.3019 226° Southwest 410 472 36,000  Level Denver Center
Sun 11:19:32 AM 37.7344 -103.4025 226° Southwest 405 466 36,000 -600 Level Denver Center
Sun 11:20:32 AM 37.6558 -103.5056 227° Southwest 405 466 34,800 -635 Descending Denver Center
Sun 11:22:41 AM 37.4847 -103.7367 225° Southwest 401 461 34,000 -254 Descending Albuquerque Center
Sun 11:23:41 AM 37.4122 -103.8292 226° Southwest 406 467 34,000  Level Albuquerque Center
Sun 11:24:41 AM 37.3239 -103.9456 226° Southwest 411 473 34,000  Level Albuquerque Center
Sun 11:25:41 AM 37.2456 -104.0481 227° Southwest 411 473 34,000  Level Albuquerque Center
Sun 11:26:41 AM 37.1731 -104.1450 226° Southwest 406 467 34,000  Level Albuquerque Center
Sun 11:27:41 AM 37.0842 -104.2606 226° Southwest 411 473 34,000  Level Albuquerque Center
Sun 11:28:41 AM 37.0033 -104.3653 226° Southwest 411 473 34,000  Level Albuquerque Center
Sun 11:29:41 AM 36.9225 -104.4697 226° Southwest 411 473 34,000  Level Albuquerque Center
Sun 11:30:41 AM 36.8497 -104.5633 227° Southwest 411 473 34,000  Level Albuquerque Center
Sun 11:31:41 AM 36.7606 -104.6806 226° Southwest 416 479 34,000 -650 Level Albuquerque Center
Sun 11:32:41 AM 36.6794 -104.7869 224° Southwest 422 486 32,700 -1,350 Descending Albuquerque Center
Sun 11:33:41 AM 36.5919 -104.8933 227° Southwest 427 491 31,300 -1,450 Descending Albuquerque Center
Sun 11:34:41 AM 36.5189 -104.9914 227° Southwest 432 497 29,800 -1,400 Descending Albuquerque Center
Sun 11:35:41 AM 36.4353 -105.1022 223° Southwest 439 505 28,500 -1,350 Descending Albuquerque Center
Sun 11:36:41 AM 36.3475 -105.2053 226° Southwest 439 505 27,100 -1,950 Descending Albuquerque Center
Sun 11:37:41 AM 36.2639 -105.3133 225° Southwest 439 505 24,600 -2,500 Descending Albuquerque Center
Sun 11:38:41 AM 36.1803 -105.4183 225° Southwest 432 497 22,100 -2,550 Descending Albuquerque Center
Sun 11:39:41 AM 36.1025 -105.5153 225° Southwest 417 480 19,500 -2,400 Descending Albuquerque Center
Sun 11:40:41 AM 36.0244 -105.6122 228° Southwest 407 468 17,300 -2,200 Descending Albuquerque Center
Sun 11:41:41 AM 35.9569 -105.7036 223° Southwest 385 443 15,100 -1,150 Descending Albuquerque Center
Sun 11:42:41 AM 35.8808 -105.7897 228° Southwest 374 430 15,000 -50 Descending Albuquerque Center
Sun 11:43:41 AM 35.8153 -105.8806 223° Southwest 374 430 15,000  Level Albuquerque Center
Sun 11:44:41 AM 35.7411 -105.9664 225° Southwest 374 430 15,000  Level Albuquerque Center
Sun 11:45:41 AM 35.6714 -106.0519 226° Southwest 368 423 15,000  Level Albuquerque Center
Sun 11:46:41 AM 35.6011 -106.1400 223° Southwest 368 423 15,000  Level Albuquerque Center
Sun 11:47:41 AM 35.5269 -106.2256 224° Southwest 368 423 15,000 -95 Level Albuquerque Center
Sun 11:48:47 AM 35.4381 -106.3311 226° Southwest 362 417 14,800 -466 Descending Albuquerque Center
Sun 11:49:24 AM 35.3969 -106.3828 230° Southwest 362 417 14,200 -778 Descending Albuquerque Center
Sun 11:49:41 AM 35.3867 -106.3981 225° Southwest 363 418 14,100 -1,000 Descending Albuquerque Center
Sun 11:50:30 AM 35.3225 -106.4778 237° Southwest 360 414 13,100 -1,000 Descending Albuquerque Center
Sun 11:50:41 AM 35.3183 -106.4856 224° Southwest 363 418 13,100 -98 Level Albuquerque Center
Sun 11:51:31 AM 35.2564 -106.5600 180° South 317 365 13,000 -100 Descending Albuquerque Center
Sun 11:51:41 AM 35.2542 -106.5600 224° Southwest 343 395 13,000 -98 Level Albuquerque Center
Sun 11:52:32 AM 35.2025 -106.6214 243° Southwest 263 303 12,900 -200 Descending Albuquerque Center
Sun 11:52:41 AM 35.2003 -106.6267 224° Southwest 308 354 12,800 -1,100 Descending Albuquerque Center
Sun 11:53:32 AM 35.1528 -106.6828 360° North 249 287 11,800 -1,000 Descending Albuquerque Center
Sun 11:53:41 AM 35.1528 -106.6828 227° Southwest 268 308 11,800 -1,574 Level Albuquerque Center
Sun 11:54:33 AM 35.1114 -106.7367 199° South 223 257 10,200 -1,597 Descending Albuquerque Center
Sun 11:55:45 AM 35.0489 -106.7625 96° East 223 257 8,500 -1,579 Descending Albuquerque Center
Sun 11:56:46 AM 35.0422 -106.6889 92° East 217 250 6,700 -1,525 Descending Albuquerque Center
Sun 11:57:47 AM 35.0397 -106.6178 92° East 189 217 5,400 -1,279 Descending Albuquerque Center

Login

Don't have an account? Register now (free) for customized features, flight alerts, and more!